Decoded Metar for LKPR (PRAGUE in CZECH REPUBLIC) (IATA:PRG) | Meteo·Mobile Aviation Weather
aviador You're here:

LKPR Decoded Metar

PRAGUE in CZECH REPUBLIC
Report Time2018-09-24 18:30:00
UTC Time2018-09-24 19:01:33
Flight Rules vfr VFR
Wind280° at 14 kt
W.Decomp.*RWY 30: 13.0 kt HW 5.2 kt LCW
RWY 24: 11.0 kt HW 8.6 kt RCW
RWY 22: 7.4 kt HW 11.9 kt RCW
W.Rank280° ranks 13
Current wind is above 280° avg. (7.6)
Visibility9999 m
Phenomena:N/A
Clouds:N/A
Expected CloudBase > 2,000 ft AGL from Temp-Dew spread
CeilingNone
Temp07°C (ISA -6)
Dew Point02°C (71% RH)
AAT0.3°C
QNH1029 hPa
Density Alt85 ft
Elevation1,198 ft
Report Wrong Elevation
Raw Report
LKPR 241830Z 28014KT CAVOK 07/02 Q1029 NOSIG=

Extra information for LKPR:More info

Metar Taf Metar & Taf Last 4 Metars F.Rules Stats Wind Profile Meteogram Temp Stats Airport Information Weather charts Add Link Nearby VenuesMetar ALERT Operation Metar Decoded Social comments